Nazareno, Brazil
Current Conditions -  °F | °C
As of 8:00 AM on Sunday 23 Nov 2014 (Local Time) from SBBQ Reporting Station
Broken Clouds Broken Clouds  
Wind Chill: 68°   Ceiling: 1300
Heat Index: 68°   Visibility: 6mi
Dew Point: 64°   Wind: 9mph
Humidity: 88%   Direction: 330°NNW
Pressure: 30.09"   Gusts: NA
Location:  21.22°S, 44.61°W
Report Text: SBBQ 231000Z 33008KT 9999 BKN013 20/18 Q1019
Loading
Personal Weather Stations






























Interactive Weather Map New forecast layout! Learn more

10-Day Weather Forecast

Advertisements
Track Severe Weather on mobile